TAF KEKN
KEKN 072339Z 0800/0824 00000KT P6SM OVC100 FM080900 00000KT P6SM VCSH SCT025 OVC060 FM081200 00000KT 2SM -SN SCT008 BKN015 OVC040 FM082000 27008KT P6SM VCSH SCT030 BKN040=
METAR KEKN
WC KEKN
WS KEKN
WV KEKN